Time,TemperatureF,DewpointF,PressureIn,WindDirection,WindDirectionDegrees,WindSpeedMPH,WindSpeedGustMPH,Humidity,HourlyPrecipIn,Conditions,Clouds,dailyrainin,SoftwareType,DateUTC
2013-09-19 00:11:00,76.4,71.0,29.73,SE,144,3.0,16.0,83,0.00,,,0.00,weatherlink.com 1.10,2013-09-19 05:11:00,
2013-09-19 00:26:00,76.3,71.0,29.73,SSE,168,0.0,11.0,83,0.00,,,0.00,weatherlink.com 1.10,2013-09-19 05:26:00,
2013-09-19 00:41:00,76.2,71.0,29.73,SE,144,0.0,11.0,83,0.00,,,0.00,weatherlink.com 1.10,2013-09-19 05:41:00,
2013-09-19 00:56:00,76.2,71.0,29.73,SSW,193,2.0,13.0,83,0.00,,,0.00,weatherlink.com 1.10,2013-09-19 05:56:00,
2013-09-19 01:11:00,76.1,71.0,29.73,SSE,157,1.0,10.0,83,0.00,,,0.00,weatherlink.com 1.10,2013-09-19 06:11:00,
2013-09-19 01:26:00,75.5,70.0,29.73,SSW,192,5.0,8.0,84,0.00,,,0.00,weatherlink.com 1.10,2013-09-19 06:26:00,
2013-09-19 01:41:00,75.2,70.0,29.73,SSE,161,0.0,12.0,84,0.00,,,0.00,weatherlink.com 1.10,2013-09-19 06:41:00,
2013-09-19 01:56:00,74.9,70.0,29.73,South,188,0.0,10.0,85,0.00,,,0.00,weatherlink.com 1.10,2013-09-19 06:56:00,
2013-09-19 02:11:00,74.9,70.0,29.73,SSE,162,5.0,13.0,85,0.00,,,0.00,weatherlink.com 1.10,2013-09-19 07:11:00,
2013-09-19 02:26:00,74.8,70.0,29.73,South,172,1.0,12.0,86,0.00,,,0.00,weatherlink.com 1.10,2013-09-19 07:26:00,
2013-09-19 02:41:00,74.7,70.0,29.73,South,171,0.0,15.0,86,0.00,,,0.00,weatherlink.com 1.10,2013-09-19 07:41:00,
2013-09-19 02:56:00,74.8,70.0,29.73,South,188,2.0,11.0,85,0.00,,,0.00,weatherlink.com 1.10,2013-09-19 07:56:00,
2013-09-19 03:11:00,74.6,70.0,29.73,SSW,204,8.0,14.0,85,0.00,,,0.00,weatherlink.com 1.10,2013-09-19 08:11:00,
2013-09-19 03:26:00,74.4,70.0,29.73,South,177,0.0,8.0,86,0.00,,,0.00,weatherlink.com 1.10,2013-09-19 08:26:00,
2013-09-19 03:41:00,74.1,70.0,29.72,SSW,207,1.0,11.0,86,0.00,,,0.00,weatherlink.com 1.10,2013-09-19 08:41:00,
2013-09-19 03:56:00,73.9,70.0,29.73,South,175,2.0,9.0,86,0.00,,,0.00,weatherlink.com 1.10,2013-09-19 08:56:00,
2013-09-19 04:11:00,73.7,69.0,29.73,South,169,5.0,9.0,86,0.00,,,0.00,weatherlink.com 1.10,2013-09-19 09:11:00,
2013-09-19 04:26:00,73.5,70.0,29.72,South,172,2.0,7.0,87,0.00,,,0.00,weatherlink.com 1.10,2013-09-19 09:26:00,
2013-09-19 04:41:00,73.2,69.0,29.72,South,174,0.0,7.0,87,0.00,,,0.00,weatherlink.com 1.10,2013-09-19 09:41:00,
2013-09-19 04:56:00,73.1,69.0,29.72,South,172,3.0,8.0,87,0.00,,,0.00,weatherlink.com 1.10,2013-09-19 09:56:00,
2013-09-19 05:11:00,72.9,69.0,29.71,South,169,0.0,9.0,87,0.00,,,0.00,weatherlink.com 1.10,2013-09-19 10:11:00,
2013-09-19 05:26:00,72.8,69.0,29.71,South,177,6.0,11.0,87,0.00,,,0.00,weatherlink.com 1.10,2013-09-19 10:26:00,
2013-09-19 05:41:00,72.8,69.0,29.71,South,185,4.0,12.0,87,0.00,,,0.00,weatherlink.com 1.10,2013-09-19 10:41:00,
2013-09-19 05:56:00,72.9,69.0,29.71,SSE,153,0.0,13.0,87,0.00,,,0.00,weatherlink.com 1.10,2013-09-19 10:56:00,
2013-09-19 06:11:00,73.1,69.0,29.71,SSW,195,0.0,14.0,86,0.00,,,0.00,weatherlink.com 1.10,2013-09-19 11:11:00,
2013-09-19 06:26:00,73.2,69.0,29.71,SSW,198,7.0,15.0,86,0.00,,,0.00,weatherlink.com 1.10,2013-09-19 11:26:00,
2013-09-19 06:41:00,73.4,69.0,29.73,SSW,198,10.0,14.0,85,0.00,,,0.00,weatherlink.com 1.10,2013-09-19 11:41:00,
2013-09-19 06:56:00,73.4,69.0,29.73,SSW,200,5.0,15.0,85,0.00,,,0.00,weatherlink.com 1.10,2013-09-19 11:56:00,
2013-09-19 07:11:00,73.2,69.0,29.72,SSW,193,0.0,8.0,85,0.00,,,0.00,weatherlink.com 1.10,2013-09-19 12:11:00,
2013-09-19 07:26:00,73.0,68.0,29.72,SSW,203,4.0,12.0,85,0.00,,,0.00,weatherlink.com 1.10,2013-09-19 12:26:00,
2013-09-19 07:41:00,73.2,69.0,29.72,South,179,7.0,13.0,85,0.00,,,0.00,weatherlink.com 1.10,2013-09-19 12:41:00,
2013-09-19 07:56:00,73.6,69.0,29.72,SSW,213,3.0,13.0,84,0.00,,,0.00,weatherlink.com 1.10,2013-09-19 12:56:00,
2013-09-19 08:11:00,74.0,69.0,29.71,SSW,200,9.0,15.0,84,0.00,,,0.00,weatherlink.com 1.10,2013-09-19 13:11:00,
2013-09-19 08:26:00,74.6,69.0,29.71,SSW,213,4.0,17.0,83,0.00,,,0.00,weatherlink.com 1.10,2013-09-19 13:26:00,
2013-09-19 08:42:00,76.0,69.0,29.71,SSW,209,5.0,21.0,80,0.00,,,0.00,weatherlink.com 1.10,2013-09-19 13:42:00,
2013-09-19 08:57:00,77.3,70.0,29.71,SSW,202,5.0,20.0,77,0.00,,,0.00,weatherlink.com 1.10,2013-09-19 13:57:00,
2013-09-19 09:12:00,79.1,70.0,29.71,SSW,206,2.0,15.0,74,0.00,,,0.00,weatherlink.com 1.10,2013-09-19 14:12:00,
2013-09-19 09:27:00,78.5,69.0,29.72,SSW,205,9.0,25.0,73,0.00,,,0.00,weatherlink.com 1.10,2013-09-19 14:27:00,
2013-09-19 09:42:00,77.9,69.0,29.72,SSW,205,12.0,20.0,74,0.00,,,0.00,weatherlink.com 1.10,2013-09-19 14:42:00,
2013-09-19 09:57:00,77.5,69.0,29.73,SSW,213,2.0,19.0,75,0.00,,,0.00,weatherlink.com 1.10,2013-09-19 14:57:00,
2013-09-19 10:12:00,78.2,69.0,29.75,SW,224,14.0,28.0,73,0.00,,,0.00,weatherlink.com 1.10,2013-09-19 15:12:00,
2013-09-19 10:27:00,79.6,69.0,29.75,WSW,250,18.0,22.0,71,0.00,,,0.00,weatherlink.com 1.10,2013-09-19 15:27:00,
2013-09-19 10:42:00,81.1,70.0,29.75,SW,215,5.0,18.0,70,0.00,,,0.00,weatherlink.com 1.10,2013-09-19 15:42:00,
2013-09-19 10:57:00,80.2,69.0,29.75,WSW,239,13.0,23.0,69,0.00,,,0.00,weatherlink.com 1.10,2013-09-19 15:57:00,
2013-09-19 11:12:00,79.7,70.0,29.74,SW,218,1.0,20.0,71,0.00,,,0.00,weatherlink.com 1.10,2013-09-19 16:12:00,
2013-09-19 11:27:00,82.1,71.0,29.74,SSW,201,5.0,15.0,68,0.00,,,0.00,weatherlink.com 1.10,2013-09-19 16:27:00,
2013-09-19 11:42:00,82.5,71.0,29.76,South,175,1.0,21.0,68,0.00,,,0.00,weatherlink.com 1.10,2013-09-19 16:42:00,
2013-09-19 11:57:00,83.6,71.0,29.75,SSW,205,0.0,18.0,65,0.00,,,0.00,weatherlink.com 1.10,2013-09-19 16:57:00,
2013-09-19 12:12:00,82.8,71.0,29.75,South,184,1.0,17.0,67,0.00,,,0.00,weatherlink.com 1.10,2013-09-19 17:12:00,
2013-09-19 12:27:00,85.2,71.0,29.73,SSW,207,4.0,13.0,62,0.00,,,0.00,weatherlink.com 1.10,2013-09-19 17:27:00,
2013-09-19 12:42:00,86.3,70.0,29.74,SW,234,5.0,16.0,59,0.00,,,0.00,weatherlink.com 1.10,2013-09-19 17:42:00,
2013-09-19 12:57:00,85.5,70.0,29.76,WSW,242,0.0,17.0,61,0.00,,,0.00,weatherlink.com 1.10,2013-09-19 17:57:00,
2013-09-19 13:12:00,84.1,70.0,29.76,WSW,257,7.0,18.0,63,0.00,,,0.00,weatherlink.com 1.10,2013-09-19 18:12:00,
2013-09-19 13:27:00,85.7,71.0,29.74,SW,215,1.0,8.0,62,0.00,,,0.00,weatherlink.com 1.10,2013-09-19 18:27:00,
2013-09-19 13:42:00,85.5,71.0,29.73,WNW,287,1.0,8.0,63,0.00,,,0.00,weatherlink.com 1.10,2013-09-19 18:42:00,
2013-09-19 13:57:00,84.4,70.0,29.72,WNW,282,0.0,0.0,63,0.00,,,0.00,weatherlink.com 1.10,2013-09-19 18:57:00,
2013-09-19 14:12:00,84.1,71.0,29.71,WNW,282,0.0,0.0,64,0.00,,,0.00,weatherlink.com 1.10,2013-09-19 19:12:00,
2013-09-19 14:27:00,84.2,70.0,29.70,WNW,282,0.0,0.0,63,0.00,,,0.00,weatherlink.com 1.10,2013-09-19 19:27:00,
2013-09-19 14:42:00,85.9,72.0,29.69,West,270,0.0,6.0,63,0.00,,,0.00,weatherlink.com 1.10,2013-09-19 19:42:00,
2013-09-19 14:57:00,84.9,71.0,29.68,SSE,165,0.0,8.0,64,0.00,,,0.00,weatherlink.com 1.10,2013-09-19 19:57:00,
2013-09-19 15:12:00,84.6,71.0,29.66,SSE,149,0.0,8.0,64,0.00,,,0.00,weatherlink.com 1.10,2013-09-19 20:12:00,
2013-09-19 15:27:00,83.3,70.0,29.66,SE,136,0.0,13.0,65,0.00,,,0.00,weatherlink.com 1.10,2013-09-19 20:27:00,
2013-09-19 15:42:00,74.8,62.0,29.72,NW,306,12.0,45.0,65,0.00,,,0.00,weatherlink.com 1.10,2013-09-19 20:42:00,
2013-09-19 15:57:00,65.9,61.0,29.67,NW,304,12.0,24.0,85,0.01,,,0.01,weatherlink.com 1.10,2013-09-19 20:57:00,
2013-09-19 16:28:00,63.7,61.0,29.73,WSW,254,0.0,17.0,90,0.58,,,0.58,weatherlink.com 1.10,2013-09-19 21:28:00,
2013-09-19 16:43:00,63.6,61.0,29.77,SW,224,12.0,15.0,92,0.75,,,0.76,weatherlink.com 1.10,2013-09-19 21:43:00,
2013-09-19 16:58:00,63.6,62.0,29.82,SW,230,10.0,20.0,93,1.01,,,1.02,weatherlink.com 1.10,2013-09-19 21:58:00,
2013-09-19 17:13:00,63.8,62.0,29.78,NW,306,1.0,6.0,94,1.10,,,1.12,weatherlink.com 1.10,2013-09-19 22:13:00,
2013-09-19 17:28:00,63.8,62.0,29.75,NNW,341,3.0,5.0,94,0.57,,,1.16,weatherlink.com 1.10,2013-09-19 22:28:00,
2013-09-19 17:43:00,63.7,62.0,29.71,NE,44,3.0,5.0,94,0.42,,,1.19,weatherlink.com 1.10,2013-09-19 22:43:00,
2013-09-19 17:58:00,63.8,62.0,29.71,NE,51,2.0,3.0,95,0.19,,,1.22,weatherlink.com 1.10,2013-09-19 22:58:00,
2013-09-19 18:13:00,64.1,63.0,29.73,NE,52,0.0,0.0,95,0.11,,,1.24,weatherlink.com 1.10,2013-09-19 23:13:00,
2013-09-19 18:28:00,64.1,63.0,29.74,NE,52,0.0,0.0,95,0.08,,,1.24,weatherlink.com 1.10,2013-09-19 23:28:00,
2013-09-19 18:43:00,64.3,63.0,29.74,NE,52,0.0,0.0,95,0.07,,,1.26,weatherlink.com 1.10,2013-09-19 23:43:00,
2013-09-19 18:58:00,64.4,63.0,29.76,NE,51,0.0,0.0,95,0.05,,,1.27,weatherlink.com 1.10,2013-09-19 23:58:00,
2013-09-19 19:13:00,64.4,63.0,29.75,NE,50,0.0,0.0,95,0.03,,,1.27,weatherlink.com 1.10,2013-09-20 00:13:00,
2013-09-19 19:28:00,64.3,63.0,29.76,NE,51,0.0,0.0,95,0.03,,,1.27,weatherlink.com 1.10,2013-09-20 00:28:00,
2013-09-19 19:43:00,64.3,63.0,29.77,NE,51,0.0,0.0,95,0.01,,,1.27,weatherlink.com 1.10,2013-09-20 00:43:00,
2013-09-19 19:58:00,64.4,63.0,29.77,WSW,244,0.0,9.0,96,0.00,,,1.27,weatherlink.com 1.10,2013-09-20 00:58:00,
2013-09-19 20:13:00,64.4,63.0,29.77,WSW,242,0.0,1.0,96,0.00,,,1.27,weatherlink.com 1.10,2013-09-20 01:13:00,
2013-09-19 20:28:00,64.5,63.0,29.79,WSW,242,0.0,0.0,96,0.00,,,1.27,weatherlink.com 1.10,2013-09-20 01:28:00,
2013-09-19 20:43:00,64.5,63.0,29.80,WSW,242,0.0,0.0,96,0.00,,,1.27,weatherlink.com 1.10,2013-09-20 01:43:00,
2013-09-19 20:58:00,64.4,63.0,29.80,WSW,242,0.0,0.0,96,0.00,,,1.27,weatherlink.com 1.10,2013-09-20 01:58:00,
2013-09-19 21:13:00,64.6,64.0,29.80,WSW,242,0.0,0.0,96,0.00,,,1.27,weatherlink.com 1.10,2013-09-20 02:13:00,
2013-09-19 21:28:00,64.6,64.0,29.80,WSW,242,0.0,0.0,96,0.00,,,1.27,weatherlink.com 1.10,2013-09-20 02:28:00,
2013-09-19 21:43:00,64.5,63.0,29.79,WSW,242,0.0,0.0,96,0.00,,,1.27,weatherlink.com 1.10,2013-09-20 02:43:00,
2013-09-19 21:59:00,64.3,63.0,29.80,WSW,242,0.0,0.0,96,0.00,,,1.27,weatherlink.com 1.10,2013-09-20 02:59:00,
2013-09-19 22:13:00,64.5,63.0,29.81,WSW,242,0.0,0.0,96,0.00,,,1.27,weatherlink.com 1.10,2013-09-20 03:13:00,
2013-09-19 22:28:00,65.2,64.0,29.81,WSW,252,2.0,8.0,96,0.00,,,1.27,weatherlink.com 1.10,2013-09-20 03:28:00,
2013-09-19 22:43:00,65.1,64.0,29.81,West,281,5.0,11.0,96,0.00,,,1.27,weatherlink.com 1.10,2013-09-20 03:43:00,
2013-09-19 22:58:00,64.5,63.0,29.81,WNW,282,0.0,10.0,96,0.00,,,1.27,weatherlink.com 1.10,2013-09-20 03:58:00,
2013-09-19 23:13:00,63.8,63.0,29.82,West,281,0.0,7.0,96,0.00,,,1.27,weatherlink.com 1.10,2013-09-20 04:13:00,
2013-09-19 23:28:00,62.6,61.0,29.82,WNW,286,4.0,11.0,95,0.00,,,1.27,weatherlink.com 1.10,2013-09-20 04:28:00,
2013-09-19 23:43:00,62.1,61.0,29.83,WNW,288,0.0,9.0,96,0.00,,,1.27,weatherlink.com 1.10,2013-09-20 04:43:00,
2013-09-19 23:58:00,61.7,61.0,29.84,WNW,289,6.0,6.0,96,0.00,,,1.27,weatherlink.com 1.10,2013-09-20 04:58:00,